Time;durP1;ratioP1;P1;durP2;ratioP2;P2;SDS_P1;SDS_P2;PMS_P1;PMS_P2;Temp;Humidity;BMP_temperature;BMP_pressure;BME280_temperature;BME280_humidity;BME280_pressure;Samples;Min_cycle;Max_cycle;Signal;HPM_P1;HPM_P2
2020/12/09 00:00:05;;;;;;;38.88;25.48;;;1.80;99.90;;;;;;5099193;28;20021;-53
2020/12/09 00:02:30;;;;;;;44.72;26.27;;;1.80;99.90;;;;;;5093605;28;20012;-50
2020/12/09 00:04:56;;;;;;;44.08;27.55;;;1.80;99.90;;;;;;5112065;28;20384;-50
2020/12/09 00:07:21;;;;;;;47.65;27.42;;;1.80;99.90;;;;;;5097607;28;20028;-51
2020/12/09 00:09:47;;;;;;;43.33;27.80;;;1.80;99.90;;;;;;5093497;28;20030;-52
2020/12/09 00:12:14;;;;;;;45.92;26.15;;;2.10;99.90;;;;;;5108167;28;20027;-50
2020/12/09 00:14:40;;;;;;;41.10;26.35;;;2.00;99.90;;;;;;5113381;28;20028;-50
2020/12/09 00:17:06;;;;;;;39.67;24.52;;;2.00;99.90;;;;;;5112306;28;20403;-54
2020/12/09 00:19:31;;;;;;;40.83;26.15;;;1.90;99.90;;;;;;5105164;28;20027;-53
2020/12/09 00:21:57;;;;;;;39.22;25.27;;;1.80;99.90;;;;;;5112218;28;20028;-49
2020/12/09 00:24:22;;;;;;;41.55;25.90;;;1.90;99.90;;;;;;5113676;28;20072;-47
2020/12/09 00:26:48;;;;;;;38.22;24.98;;;2.00;99.90;;;;;;5108290;28;20020;-52
2020/12/09 00:29:13;;;;;;;37.42;25.20;;;2.00;99.90;;;;;;5104432;28;20074;-50
2020/12/09 00:31:39;;;;;;;40.55;24.80;;;2.00;99.90;;;;;;5093431;28;20020;-54
2020/12/09 00:34:04;;;;;;;49.08;25.70;;;2.00;99.90;;;;;;5093512;28;20039;-49
2020/12/09 00:36:30;;;;;;;40.20;24.10;;;2.00;99.90;;;;;;5094384;28;20485;-52
2020/12/09 00:38:56;;;;;;;39.00;23.20;;;2.00;99.90;;;;;;5093772;28;20384;-49
2020/12/09 00:41:26;;;;;;;39.83;23.75;;;2.10;99.90;;;;;;5093040;28;20039;-52
2020/12/09 00:43:53;;;;;;;46.83;25.52;;;2.10;99.90;;;;;;5093159;28;20213;-49
2020/12/09 00:46:20;;;;;;;38.40;24.27;;;2.10;99.90;;;;;;5074823;28;20366;-50
2020/12/09 00:48:46;;;;;;;42.97;24.52;;;2.00;99.90;;;;;;5103703;28;20019;-49
2020/12/09 00:51:16;;;;;;;40.92;25.15;;;2.00;99.90;;;;;;5098125;28;20490;-54
2020/12/09 00:53:42;;;;;;;40.75;24.08;;;2.10;99.90;;;;;;5095253;28;20413;-49
2020/12/09 00:56:08;;;;;;;42.55;23.48;;;2.10;99.90;;;;;;5112942;28;20024;-49
2020/12/09 00:58:34;;;;;;;38.65;23.52;;;2.10;99.90;;;;;;5093258;28;20027;-49
2020/12/09 01:01:01;;;;;;;39.40;24.55;;;2.10;99.90;;;;;;5101596;28;20026;-49
2020/12/09 01:03:26;;;;;;;36.80;23.45;;;2.10;99.90;;;;;;5113582;28;20030;-50
2020/12/09 01:05:52;;;;;;;41.35;24.25;;;2.20;99.90;;;;;;5112959;28;20020;-51
2020/12/09 01:08:17;;;;;;;45.50;27.10;;;2.20;99.90;;;;;;5113083;28;20126;-51
2020/12/09 01:10:43;;;;;;;43.78;25.10;;;2.20;99.90;;;;;;5101816;28;20020;-53
2020/12/09 01:13:08;;;;;;;42.67;24.42;;;2.20;99.90;;;;;;5092772;28;20399;-52
2020/12/09 01:15:34;;;;;;;42.13;25.90;;;2.10;99.90;;;;;;5101053;28;20563;-51
2020/12/09 01:17:59;;;;;;;51.17;28.15;;;2.10;99.90;;;;;;5130044;22;20028;-44
2020/12/09 01:20:25;;;;;;;44.97;28.67;;;1.90;99.90;;;;;;5049233;28;20039;-46
2020/12/09 01:22:50;;;;;;;45.97;26.13;;;1.90;99.90;;;;;;5050567;28;20115;-47
2020/12/09 01:25:16;;;;;;;44.28;27.30;;;1.80;99.90;;;;;;5052197;28;20126;-52
2020/12/09 01:27:42;;;;;;;48.38;28.08;;;1.70;99.90;;;;;;5051201;28;20067;-48
2020/12/09 01:30:07;;;;;;;44.25;27.05;;;1.70;99.90;;;;;;5050021;28;20021;-47
2020/12/09 01:32:32;;;;;;;50.17;27.65;;;1.70;99.90;;;;;;5052089;28;20029;-47
2020/12/09 01:34:58;;;;;;;47.42;26.25;;;1.60;99.90;;;;;;5053334;28;20043;-48
2020/12/09 01:37:24;;;;;;;52.60;27.75;;;1.70;99.90;;;;;;5050118;28;20017;-50
2020/12/09 01:39:49;;;;;;;42.05;25.73;;;1.60;99.90;;;;;;5050993;28;20104;-47
2020/12/09 01:42:15;;;;;;;53.95;28.95;;;1.60;99.90;;;;;;5051620;28;20074;-47
2020/12/09 01:44:41;;;;;;;50.65;27.85;;;1.60;99.90;;;;;;5051576;28;20021;-49
2020/12/09 01:47:07;;;;;;;46.13;27.58;;;1.70;99.90;;;;;;5051910;28;20021;-50
2020/12/09 01:49:33;;;;;;;38.60;26.48;;;1.70;99.90;;;;;;5050800;28;20048;-50
2020/12/09 01:52:00;;;;;;;49.15;27.58;;;1.90;99.90;;;;;;5051546;28;20029;-48
2020/12/09 01:54:26;;;;;;;41.10;24.50;;;1.90;99.90;;;;;;5051384;28;20025;-49
2020/12/09 01:57:06;;;;;;;46.20;25.15;;;2.00;99.90;;;;;;5050305;28;20506;-50
2020/12/09 01:59:33;;;;;;;43.85;26.25;;;1.90;99.90;;;;;;5050709;28;20029;-48
2020/12/09 02:01:59;;;;;;;40.13;23.85;;;2.00;99.90;;;;;;5051379;28;20041;-52
2020/12/09 02:04:25;;;;;;;45.83;25.77;;;2.10;99.90;;;;;;5051339;28;20047;-51
2020/12/09 02:06:52;;;;;;;43.17;24.88;;;2.10;99.90;;;;;;5051450;28;20495;-47
2020/12/09 02:09:19;;;;;;;45.65;25.75;;;2.20;99.90;;;;;;5050729;28;20063;-42
2020/12/09 02:11:46;;;;;;;41.50;26.42;;;2.10;99.90;;;;;;5051547;28;20049;-46
2020/12/09 02:14:11;;;;;;;41.17;26.17;;;2.20;99.90;;;;;;5051905;28;20431;-49
2020/12/09 02:16:37;;;;;;;39.80;23.02;;;2.10;99.90;;;;;;5051204;28;20064;-51
2020/12/09 02:19:03;;;;;;;44.85;25.23;;;2.10;99.90;;;;;;5049875;28;20037;-49
2020/12/09 02:21:33;;;;;;;50.90;25.98;;;2.00;99.90;;;;;;5050646;28;20033;-48
2020/12/09 02:23:59;;;;;;;41.30;26.50;;;2.00;99.90;;;;;;5051179;28;20029;-48
2020/12/09 02:26:24;;;;;;;46.22;26.15;;;1.90;99.90;;;;;;5051128;28;20059;-49
2020/12/09 02:28:50;;;;;;;44.92;25.30;;;1.80;99.90;;;;;;5050913;28;20509;-45
2020/12/09 02:31:15;;;;;;;44.40;23.70;;;1.80;99.90;;;;;;5050319;28;20095;-50
2020/12/09 02:33:41;;;;;;;45.42;25.20;;;1.80;99.90;;;;;;5050920;28;20025;-51
2020/12/09 02:36:06;;;;;;;38.13;23.70;;;1.80;99.90;;;;;;5050859;28;20062;-48
2020/12/09 02:38:33;;;;;;;41.30;25.20;;;1.90;99.90;;;;;;5050620;28;20108;-44
2020/12/09 02:40:59;;;;;;;39.47;23.00;;;1.90;99.90;;;;;;5049926;28;20057;-50
2020/12/09 02:43:24;;;;;;;44.80;24.77;;;1.90;99.90;;;;;;5050577;28;20072;-46
2020/12/09 02:45:50;;;;;;;39.85;22.92;;;1.90;99.90;;;;;;5050657;28;20025;-48
2020/12/09 02:48:15;;;;;;;40.50;22.48;;;2.00;99.90;;;;;;5049678;28;20017;-48
2020/12/09 02:50:41;;;;;;;34.28;21.83;;;2.00;99.90;;;;;;5049748;28;20021;-45
2020/12/09 02:53:06;;;;;;;38.35;22.77;;;2.00;99.90;;;;;;5050468;28;20025;-46
2020/12/09 02:55:32;;;;;;;39.35;24.02;;;2.00;99.90;;;;;;5059037;28;20085;-52
2020/12/09 02:57:57;;;;;;;40.00;24.02;;;1.90;99.90;;;;;;5053775;28;20029;-48
2020/12/09 03:00:23;;;;;;;42.33;26.08;;;1.90;99.90;;;;;;5049718;28;20490;-46
2020/12/09 03:02:48;;;;;;;38.10;23.17;;;1.90;99.90;;;;;;5050218;28;20136;-51
2020/12/09 03:05:14;;;;;;;39.05;23.75;;;1.80;99.90;;;;;;5050384;28;20025;-48
2020/12/09 03:07:39;;;;;;;44.63;23.98;;;1.80;99.90;;;;;;5050264;28;20483;-49
2020/12/09 03:10:05;;;;;;;40.30;24.33;;;1.80;99.90;;;;;;5049562;28;20393;-48
2020/12/09 03:12:30;;;;;;;48.13;26.88;;;1.80;99.90;;;;;;5050192;28;20021;-52
2020/12/09 03:14:56;;;;;;;37.10;24.08;;;1.90;99.90;;;;;;5050229;28;20342;-47
2020/12/09 03:17:21;;;;;;;40.50;25.20;;;1.90;99.90;;;;;;5050222;28;20029;-49
2020/12/09 03:19:47;;;;;;;43.65;24.30;;;2.00;99.90;;;;;;5049861;28;20123;-48
2020/12/09 03:22:12;;;;;;;41.10;24.65;;;2.10;99.90;;;;;;5050142;28;20425;-46
2020/12/09 03:24:38;;;;;;;46.55;25.08;;;2.20;99.90;;;;;;5049921;28;20052;-48
2020/12/09 03:27:04;;;;;;;41.95;25.73;;;2.10;99.90;;;;;;5049174;28;20060;-48
2020/12/09 03:29:29;;;;;;;40.80;24.48;;;2.10;99.90;;;;;;5049244;28;20534;-46
2020/12/09 03:31:55;;;;;;;50.35;25.23;;;2.00;99.90;;;;;;5050144;28;20433;-51
2020/12/09 03:34:20;;;;;;;47.03;27.48;;;2.00;99.90;;;;;;5050077;28;20501;-45
2020/12/09 03:36:46;;;;;;;44.83;25.42;;;1.90;99.90;;;;;;5050162;28;20029;-46
2020/12/09 03:39:11;;;;;;;42.10;25.52;;;1.90;99.90;;;;;;5049759;28;20021;-51
2020/12/09 03:41:38;;;;;;;52.38;25.85;;;1.80;99.90;;;;;;5049895;28;20532;-48
2020/12/09 03:44:03;;;;;;;40.83;25.17;;;1.90;99.90;;;;;;5049928;28;20025;-48
2020/12/09 03:46:29;;;;;;;43.10;25.50;;;1.80;99.90;;;;;;5050101;28;20112;-47
2020/12/09 03:48:54;;;;;;;41.10;25.08;;;1.70;99.90;;;;;;5050003;28;20032;-45
2020/12/09 03:51:20;;;;;;;43.35;24.35;;;1.60;99.90;;;;;;5048101;28;20025;-48
2020/12/09 03:53:45;;;;;;;43.42;26.13;;;1.60;99.90;;;;;;5049871;28;20017;-47
2020/12/09 03:56:11;;;;;;;42.90;25.92;;;1.80;99.90;;;;;;5050027;28;20028;-45
2020/12/09 03:58:36;;;;;;;48.15;25.58;;;2.00;99.90;;;;;;5048704;28;20055;-49
2020/12/09 04:01:02;;;;;;;43.75;25.38;;;2.10;99.90;;;;;;5052963;28;20033;-47
2020/12/09 04:03:27;;;;;;;44.75;24.58;;;2.10;99.90;;;;;;5053782;28;20031;-46
2020/12/09 04:05:53;;;;;;;41.50;25.08;;;2.20;99.90;;;;;;5053644;28;20071;-47
2020/12/09 04:08:18;;;;;;;43.38;26.00;;;2.20;99.90;;;;;;5053638;28;20071;-48
2020/12/09 04:10:44;;;;;;;44.97;25.90;;;2.10;99.90;;;;;;5052762;28;20029;-47
2020/12/09 04:13:09;;;;;;;42.00;25.85;;;2.10;99.90;;;;;;5053436;28;20436;-49
2020/12/09 04:15:35;;;;;;;43.25;24.30;;;2.10;99.90;;;;;;5053255;28;20079;-45
2020/12/09 04:18:00;;;;;;;41.83;25.48;;;2.20;99.90;;;;;;5053483;28;20021;-51
2020/12/09 04:20:26;;;;;;;43.53;25.00;;;2.20;99.90;;;;;;5051422;28;20064;-46
2020/12/09 04:22:51;;;;;;;45.40;25.65;;;2.30;99.90;;;;;;5053496;28;20041;-44
2020/12/09 04:25:17;;;;;;;46.47;25.95;;;2.20;99.90;;;;;;5053581;28;20072;-45
2020/12/09 04:27:42;;;;;;;44.85;26.77;;;2.20;99.90;;;;;;5053154;28;20021;-50
2020/12/09 04:30:08;;;;;;;43.92;25.85;;;2.30;99.90;;;;;;5052424;28;20502;-45
2020/12/09 04:32:34;;;;;;;40.20;24.45;;;2.20;99.90;;;;;;5053149;28;20498;-45
2020/12/09 04:34:59;;;;;;;43.53;25.67;;;2.30;99.90;;;;;;5052971;28;20411;-47
2020/12/09 04:37:27;;;;;;;49.28;25.38;;;2.30;99.90;;;;;;5053011;28;20104;-52
2020/12/09 04:39:56;;;;;;;46.60;26.52;;;2.40;99.90;;;;;;5052250;28;20021;-50
2020/12/09 04:42:24;;;;;;;46.42;26.73;;;2.40;99.90;;;;;;5052878;28;20513;-46
2020/12/09 04:44:50;;;;;;;45.17;26.75;;;2.50;99.90;;;;;;5052811;28;20528;-50
2020/12/09 04:47:24;;;;;;;46.55;26.55;;;2.50;99.90;;;;;;5052857;28;20017;-45
2020/12/09 04:50:12;;;;;;;42.05;26.00;;;2.60;99.90;;;;;;5052017;28;20514;-48
2020/12/09 04:53:13;;;;;;;44.15;25.65;;;2.60;99.90;;;;;;5052835;28;20044;-45
2020/12/09 04:55:51;;;;;;;46.67;25.58;;;2.60;99.90;;;;;;5044575;28;20119;-43
2020/12/09 04:58:41;;;;;;;40.75;25.65;;;2.50;99.90;;;;;;5052830;28;20497;-51
2020/12/09 05:01:09;;;;;;;42.72;24.02;;;2.40;99.90;;;;;;5044318;28;20044;-42
2020/12/09 05:03:48;;;;;;;44.55;25.30;;;2.40;99.90;;;;;;5052570;28;20410;-43
2020/12/09 05:06:16;;;;;;;38.35;24.10;;;2.40;99.90;;;;;;5052390;28;20492;-43
2020/12/09 05:09:02;;;;;;;39.00;23.80;;;2.40;99.90;;;;;;5052422;28;20040;-45
2020/12/09 05:11:28;;;;;;;40.75;24.63;;;2.50;99.90;;;;;;5050903;28;20033;-47
2020/12/09 05:13:55;;;;;;;43.60;25.45;;;2.40;99.90;;;;;;5052366;28;20444;-48
2020/12/09 05:16:22;;;;;;;43.30;24.20;;;2.40;99.90;;;;;;5052658;28;20114;-43
2020/12/09 05:18:55;;;;;;;40.25;24.17;;;2.40;99.90;;;;;;5051970;28;20498;-47
2020/12/09 05:21:23;;;;;;;43.42;25.45;;;2.30;99.90;;;;;;5051509;28;20025;-44
2020/12/09 05:23:56;;;;;;;41.30;25.25;;;2.30;99.90;;;;;;5052013;28;20100;-45
2020/12/09 05:26:30;;;;;;;45.67;25.10;;;2.30;99.90;;;;;;5050972;28;20688;-44
2020/12/09 05:29:12;;;;;;;36.45;23.40;;;2.40;99.90;;;;;;5052493;28;20394;-43
2020/12/09 05:31:39;;;;;;;43.80;24.55;;;2.60;99.90;;;;;;5051712;28;20025;-47
2020/12/09 05:34:23;;;;;;;41.75;24.17;;;2.60;99.90;;;;;;5052277;28;20056;-43
2020/12/09 05:36:49;;;;;;;45.33;24.88;;;2.50;99.90;;;;;;5052040;28;20042;-48
2020/12/09 05:39:15;;;;;;;42.65;24.60;;;2.50;99.90;;;;;;5049609;28;20074;-42
2020/12/09 05:41:40;;;;;;;42.60;25.33;;;2.40;99.90;;;;;;5051484;28;20112;-46
2020/12/09 05:44:06;;;;;;;45.50;25.45;;;2.40;99.90;;;;;;5050207;28;20033;-45
2020/12/09 05:46:32;;;;;;;40.92;24.92;;;2.40;99.90;;;;;;5051613;28;20076;-43
2020/12/09 05:48:58;;;;;;;43.38;24.77;;;2.30;99.90;;;;;;5051756;28;20025;-45
2020/12/09 05:51:24;;;;;;;43.22;27.50;;;2.30;99.90;;;;;;5050960;28;20017;-46
2020/12/09 05:53:50;;;;;;;46.15;25.90;;;2.30;99.90;;;;;;5051410;28;20498;-45
2020/12/09 05:56:18;;;;;;;48.45;27.15;;;2.20;99.90;;;;;;5051472;28;20033;-45
2020/12/09 05:58:45;;;;;;;45.28;25.77;;;2.30;99.90;;;;;;5051179;28;20021;-45
2020/12/09 06:01:16;;;;;;;43.55;25.20;;;2.30;99.90;;;;;;5050843;28;20441;-48
2020/12/09 06:03:43;;;;;;;45.45;25.67;;;2.30;99.90;;;;;;5051262;28;20029;-49
2020/12/09 06:06:16;;;;;;;38.72;25.00;;;2.30;99.90;;;;;;5050102;28;20020;-47
2020/12/09 06:09:00;;;;;;;36.08;23.42;;;2.30;99.90;;;;;;5049866;28;20017;-49
2020/12/09 06:11:31;;;;;;;41.63;24.88;;;2.30;99.90;;;;;;5050542;28;20079;-46
2020/12/09 06:13:57;;;;;;;40.90;26.23;;;2.30;99.90;;;;;;5051247;28;20107;-47
2020/12/09 06:16:24;;;;;;;41.17;24.85;;;2.30;99.90;;;;;;5051153;28;20075;-47
2020/12/09 06:18:55;;;;;;;36.65;23.17;;;2.30;99.90;;;;;;5050707;28;20037;-46
2020/12/09 06:21:21;;;;;;;37.55;24.25;;;2.10;99.90;;;;;;5050107;28;20116;-46
2020/12/09 06:23:48;;;;;;;38.55;24.33;;;2.00;99.90;;;;;;5050648;28;20060;-45
2020/12/09 06:26:15;;;;;;;44.50;25.10;;;2.00;99.90;;;;;;5049139;28;20028;-44
2020/12/09 06:28:45;;;;;;;41.97;25.52;;;2.00;99.90;;;;;;5050606;28;20410;-49
2020/12/09 06:31:18;;;;;;;39.38;24.80;;;2.00;99.90;;;;;;5049788;28;20028;-46
2020/12/09 06:33:49;;;;;;;40.45;24.55;;;2.10;99.90;;;;;;5050559;28;20033;-47
2020/12/09 06:36:20;;;;;;;39.15;24.25;;;2.10;99.90;;;;;;5050650;28;20025;-46
2020/12/09 06:39:07;;;;;;;41.35;25.65;;;2.10;99.90;;;;;;5050599;28;20090;-44
2020/12/09 06:41:40;;;;;;;45.53;25.25;;;2.10;99.90;;;;;;5050193;28;20029;-49
2020/12/09 06:44:10;;;;;;;42.72;25.63;;;2.20;99.90;;;;;;5050669;28;20017;-45
2020/12/09 06:46:43;;;;;;;42.80;25.88;;;2.20;99.90;;;;;;5050523;28;20021;-49
2020/12/09 06:49:28;;;;;;;46.28;26.85;;;2.10;99.90;;;;;;5050190;28;20025;-52
2020/12/09 06:52:14;;;;;;;43.40;26.73;;;2.00;99.90;;;;;;5050667;28;20395;-45
2020/12/09 06:54:41;;;;;;;42.53;27.52;;;2.00;99.90;;;;;;5049709;28;20033;-46
2020/12/09 06:57:19;;;;;;;45.63;26.40;;;1.90;99.90;;;;;;5050807;28;20129;-46
2020/12/09 06:59:46;;;;;;;45.63;27.40;;;1.90;99.90;;;;;;5049790;28;20017;-47
2020/12/09 07:02:29;;;;;;;39.03;24.63;;;1.90;99.90;;;;;;5050688;28;20456;-43
2020/12/09 07:04:54;;;;;;;42.45;25.27;;;2.00;99.90;;;;;;5050118;28;20036;-44
2020/12/09 07:07:32;;;;;;;45.03;26.85;;;2.00;99.90;;;;;;5050342;28;20441;-45
2020/12/09 07:09:59;;;;;;;42.45;25.42;;;2.00;99.90;;;;;;5049819;28;20390;-47
2020/12/09 07:12:26;;;;;;;45.08;26.90;;;2.00;99.90;;;;;;5050157;28;20055;-50
2020/12/09 07:14:53;;;;;;;46.42;27.20;;;2.00;99.90;;;;;;5050125;28;20033;-48
2020/12/09 07:17:24;;;;;;;45.60;26.85;;;2.00;99.90;;;;;;5050222;28;20033;-50
2020/12/09 07:19:50;;;;;;;48.30;26.48;;;2.20;99.90;;;;;;5076405;22;20576;-53
2020/12/09 07:22:17;;;;;;;48.28;27.02;;;2.20;99.90;;;;;;5070320;28;20100;-51
2020/12/09 07:24:42;;;;;;;49.40;27.13;;;2.20;99.90;;;;;;5069960;28;20024;-50
2020/12/09 07:27:10;;;;;;;50.15;27.25;;;2.20;99.90;;;;;;5069254;28;20021;-53
2020/12/09 07:29:43;;;;;;;51.47;29.85;;;2.20;99.90;;;;;;5069487;28;20020;-51
2020/12/09 07:32:10;;;;;;;48.28;27.52;;;2.20;99.90;;;;;;5070183;28;20359;-51
2020/12/09 07:34:51;;;;;;;47.38;26.35;;;2.20;99.90;;;;;;5072192;28;20025;-50
2020/12/09 07:37:22;;;;;;;49.00;28.05;;;2.20;99.90;;;;;;5074382;28;20021;-54
2020/12/09 07:39:49;;;;;;;46.90;27.20;;;2.20;99.90;;;;;;5073431;28;20258;-51
2020/12/09 07:42:16;;;;;;;43.40;25.85;;;2.10;99.90;;;;;;5074081;28;20017;-53
2020/12/09 07:44:43;;;;;;;44.67;27.65;;;2.20;99.90;;;;;;5073478;28;20233;-50
2020/12/09 07:47:10;;;;;;;40.78;24.52;;;2.10;99.90;;;;;;5073835;28;20393;-53
2020/12/09 07:49:36;;;;;;;46.30;27.45;;;2.10;99.90;;;;;;5073123;28;20040;-52
2020/12/09 07:52:21;;;;;;;46.72;26.67;;;2.20;99.90;;;;;;5073829;28;20031;-53
2020/12/09 07:54:47;;;;;;;39.83;25.43;;;2.20;99.90;;;;;;5055636;28;20029;-49
2020/12/09 07:57:14;;;;;;;44.05;26.40;;;2.20;99.90;;;;;;5072668;28;20263;-52
2020/12/09 07:59:39;;;;;;;48.10;27.92;;;2.20;99.90;;;;;;5072937;28;20074;-48
2020/12/09 08:02:25;;;;;;;48.00;27.35;;;2.10;99.90;;;;;;5073718;28;20036;-51
2020/12/09 08:05:13;;;;;;;44.80;27.40;;;2.10;99.90;;;;;;5073430;28;20035;-48
2020/12/09 08:07:48;;;;;;;42.15;26.13;;;2.20;99.90;;;;;;5073397;28;20027;-52
2020/12/09 08:10:14;;;;;;;44.15;27.67;;;2.20;99.90;;;;;;5072798;28;20044;-53
2020/12/09 08:12:41;;;;;;;43.25;26.50;;;2.00;99.90;;;;;;5073580;28;20125;-49
2020/12/09 08:15:08;;;;;;;46.65;26.52;;;1.90;99.90;;;;;;5073293;28;20397;-50
2020/12/09 08:17:34;;;;;;;43.03;26.15;;;1.90;99.90;;;;;;5073701;28;20456;-52
2020/12/09 08:20:06;;;;;;;49.38;26.52;;;1.80;99.90;;;;;;5072463;28;20040;-53
2020/12/09 08:22:32;;;;;;;50.45;29.05;;;1.80;99.90;;;;;;5055207;28;20033;-51
2020/12/09 08:25:08;;;;;;;50.65;27.88;;;1.80;99.90;;;;;;5073158;28;20039;-50
2020/12/09 08:27:44;;;;;;;44.85;27.45;;;1.80;99.90;;;;;;5073139;28;20021;-53
2020/12/09 08:30:22;;;;;;;42.95;26.40;;;1.80;99.90;;;;;;5072124;28;20027;-53
2020/12/09 08:32:59;;;;;;;42.83;26.70;;;1.90;99.90;;;;;;5072715;28;20406;-54
2020/12/09 08:35:26;;;;;;;40.58;26.27;;;2.10;99.90;;;;;;5073005;28;20020;-53
2020/12/09 08:37:51;;;;;;;43.97;27.55;;;2.20;99.90;;;;;;5073116;28;20025;-55
2020/12/09 08:40:17;;;;;;;41.28;25.67;;;2.40;99.90;;;;;;5071927;28;20032;-52
2020/12/09 08:42:56;;;;;;;41.10;25.50;;;2.40;99.90;;;;;;5073116;28;20025;-52
2020/12/09 08:45:22;;;;;;;41.13;27.02;;;2.60;99.90;;;;;;5071439;28;20154;-50
2020/12/09 08:47:48;;;;;;;42.63;24.73;;;2.70;99.90;;;;;;5072560;28;20103;-54
2020/12/09 08:50:13;;;;;;;45.60;26.92;;;3.00;99.90;;;;;;5053721;28;20025;-48
2020/12/09 08:52:39;;;;;;;47.78;27.15;;;3.20;99.90;;;;;;5072505;28;20013;-55
2020/12/09 08:55:05;;;;;;;45.17;26.42;;;3.20;99.90;;;;;;5072396;28;20071;-51
2020/12/09 08:57:30;;;;;;;44.28;27.20;;;3.40;99.90;;;;;;5072409;28;20024;-49
2020/12/09 08:59:56;;;;;;;44.05;25.98;;;3.60;99.90;;;;;;5071575;28;20029;-54
2020/12/09 09:02:21;;;;;;;41.97;26.17;;;3.80;99.90;;;;;;5072557;28;20024;-54
2020/12/09 09:04:47;;;;;;;48.95;26.25;;;4.10;99.80;;;;;;5072301;28;20107;-49
2020/12/09 09:07:12;;;;;;;38.83;24.85;;;4.20;99.40;;;;;;5072016;28;20054;-50
2020/12/09 09:09:38;;;;;;;38.10;24.83;;;4.30;99.30;;;;;;5071353;28;20498;-52
2020/12/09 09:12:04;;;;;;;40.92;26.00;;;4.40;99.10;;;;;;5072072;28;20039;-51
2020/12/09 09:14:31;;;;;;;36.25;22.92;;;4.60;98.90;;;;;;5072100;28;20040;-50
2020/12/09 09:16:57;;;;;;;42.40;25.55;;;4.80;98.40;;;;;;5071953;28;20020;-54
2020/12/09 09:19:23;;;;;;;39.30;25.25;;;5.00;97.90;;;;;;5071179;28;20127;-50
2020/12/09 09:21:49;;;;;;;41.38;24.13;;;4.80;97.90;;;;;;5054064;28;20112;-53
2020/12/09 09:24:14;;;;;;;41.22;26.05;;;4.60;98.40;;;;;;5071928;28;20028;-54
2020/12/09 09:26:40;;;;;;;42.65;25.40;;;4.40;98.80;;;;;;5070731;28;20056;-52
2020/12/09 09:29:05;;;;;;;48.53;28.13;;;4.40;99.20;;;;;;5071866;28;20067;-55
2020/12/09 09:31:31;;;;;;;46.45;25.70;;;4.20;99.40;;;;;;5071020;28;20396;-55
2020/12/09 09:33:56;;;;;;;44.83;26.67;;;4.10;99.60;;;;;;5071628;28;20082;-52
2020/12/09 09:36:22;;;;;;;46.00;25.80;;;4.10;99.80;;;;;;5053543;28;20302;-50
2020/12/09 09:38:48;;;;;;;46.58;27.88;;;4.00;99.90;;;;;;5071616;28;20040;-49
2020/12/09 09:41:16;;;;;;;52.90;28.08;;;4.00;99.90;;;;;;5070500;28;20554;-49
2020/12/09 09:43:42;;;;;;;45.55;26.65;;;4.00;99.90;;;;;;5051803;28;20024;-51
2020/12/09 09:46:07;;;;;;;52.35;28.02;;;4.00;99.90;;;;;;5071207;28;20025;-56
2020/12/09 09:48:33;;;;;;;44.78;26.60;;;4.00;99.90;;;;;;5071207;28;20063;-57
2020/12/09 09:50:58;;;;;;;48.60;27.95;;;4.00;99.90;;;;;;5070328;28;20036;-54
2020/12/09 09:53:24;;;;;;;49.22;28.45;;;4.00;99.90;;;;;;5070307;28;20099;-53
2020/12/09 09:55:49;;;;;;;48.97;27.58;;;4.10;99.90;;;;;;5071132;28;20477;-51
2020/12/09 09:58:15;;;;;;;51.60;29.35;;;4.10;99.90;;;;;;5052738;28;20542;-50
2020/12/09 10:00:40;;;;;;;46.28;28.48;;;4.10;99.90;;;;;;5070193;28;20032;-54
2020/12/09 10:03:06;;;;;;;54.50;27.67;;;4.00;99.90;;;;;;5052658;28;20538;-57
2020/12/09 10:05:31;;;;;;;46.33;25.35;;;4.00;99.90;;;;;;5070834;28;20091;-54
2020/12/09 10:07:56;;;;;;;49.38;27.80;;;4.10;99.90;;;;;;5071108;28;20017;-52
2020/12/09 10:10:22;;;;;;;59.60;26.15;;;4.10;99.90;;;;;;5070195;28;20489;-55
2020/12/09 10:12:47;;;;;;;44.45;24.92;;;4.10;99.90;;;;;;5053236;28;20061;-52
2020/12/09 10:15:13;;;;;;;44.42;25.17;;;4.10;99.90;;;;;;5052836;28;20513;-52
2020/12/09 10:17:39;;;;;;;43.53;25.90;;;4.10;99.90;;;;;;5071864;28;20025;-56
2020/12/09 10:20:04;;;;;;;50.30;27.45;;;4.20;99.90;;;;;;5051756;28;20031;-55
2020/12/09 10:22:30;;;;;;;49.47;27.25;;;4.30;99.90;;;;;;5071056;28;20020;-54
2020/12/09 10:24:56;;;;;;;49.20;26.95;;;4.30;99.90;;;;;;5070601;28;20028;-54
2020/12/09 10:27:21;;;;;;;45.03;25.33;;;4.30;99.90;;;;;;5071519;28;20028;-53
2020/12/09 10:29:47;;;;;;;46.05;26.75;;;4.30;99.90;;;;;;5069471;28;20025;-55
2020/12/09 10:32:12;;;;;;;39.28;22.63;;;4.40;99.90;;;;;;5070722;28;20025;-57
2020/12/09 10:34:40;;;;;;;46.67;27.50;;;4.40;99.80;;;;;;5070499;28;20390;-55
2020/12/09 10:37:05;;;;;;;46.03;24.73;;;4.40;99.90;;;;;;5070703;28;20021;-51
2020/12/09 10:39:31;;;;;;;47.70;25.00;;;4.50;99.90;;;;;;5067944;28;20029;-53
2020/12/09 10:41:56;;;;;;;48.13;25.23;;;4.50;99.90;;;;;;5070559;28;20036;-58
2020/12/09 10:44:22;;;;;;;46.97;24.83;;;4.60;99.50;;;;;;5070357;28;20501;-56
2020/12/09 10:46:48;;;;;;;41.95;25.00;;;4.60;99.70;;;;;;5070507;28;20029;-57
2020/12/09 10:49:15;;;;;;;45.63;25.80;;;4.60;99.80;;;;;;5069765;28;20044;-56
2020/12/09 10:51:49;;;;;;;44.28;24.63;;;4.60;99.50;;;;;;5051348;28;20028;-56
2020/12/09 10:54:15;;;;;;;40.50;23.48;;;4.70;99.60;;;;;;5069700;28;20032;-54
2020/12/09 10:56:41;;;;;;;47.05;24.90;;;4.70;99.50;;;;;;5070273;28;20028;-56
2020/12/09 10:59:06;;;;;;;40.60;24.08;;;4.60;99.70;;;;;;5069713;28;20373;-51
2020/12/09 11:01:33;;;;;;;45.28;22.15;;;4.70;99.50;;;;;;5069915;28;20033;-49
2020/12/09 11:03:59;;;;;;;47.47;25.48;;;4.70;99.50;;;;;;5069844;28;20035;-52
2020/12/09 11:06:29;;;;;;;44.58;25.08;;;4.70;99.90;;;;;;5068745;28;20036;-52
2020/12/09 11:08:56;;;;;;;44.45;24.05;;;4.60;99.90;;;;;;5068594;28;20020;-50
2020/12/09 11:11:23;;;;;;;42.70;24.52;;;4.60;99.90;;;;;;5069535;28;20032;-53
2020/12/09 11:13:49;;;;;;;38.08;22.75;;;4.70;99.90;;;;;;5059241;28;20033;-49
2020/12/09 11:16:15;;;;;;;47.72;26.10;;;4.90;99.90;;;;;;5070489;28;20042;-51
2020/12/09 11:18:41;;;;;;;44.45;23.98;;;5.00;99.90;;;;;;5069808;28;20450;-49
2020/12/09 11:21:07;;;;;;;43.97;25.35;;;5.20;99.90;;;;;;5069216;28;20032;-52
2020/12/09 11:23:32;;;;;;;46.65;25.02;;;5.30;99.70;;;;;;5070076;28;20504;-54
2020/12/09 11:25:58;;;;;;;41.83;23.90;;;5.30;99.90;;;;;;5051736;28;20257;-51
2020/12/09 11:28:23;;;;;;;45.17;24.33;;;5.40;99.70;;;;;;5052177;28;20112;-52
2020/12/09 11:30:49;;;;;;;44.35;24.75;;;5.40;99.50;;;;;;5068822;28;20028;-53
2020/12/09 11:33:14;;;;;;;42.33;24.10;;;5.30;99.10;;;;;;5069572;28;20056;-51
2020/12/09 11:35:40;;;;;;;38.63;22.65;;;5.20;99.30;;;;;;5051882;28;20135;-49
2020/12/09 11:38:05;;;;;;;36.53;22.33;;;5.10;99.00;;;;;;5069956;28;20024;-56
2020/12/09 11:40:31;;;;;;;42.03;23.45;;;5.10;99.10;;;;;;5068777;28;20428;-58
2020/12/09 11:42:56;;;;;;;41.78;23.58;;;5.20;99.40;;;;;;5039855;28;20136;-47
2020/12/09 11:45:22;;;;;;;35.90;22.13;;;5.10;99.10;;;;;;5068765;28;20394;-49
2020/12/09 11:47:47;;;;;;;43.50;23.52;;;5.20;98.80;;;;;;5069003;28;20371;-49
2020/12/09 11:50:13;;;;;;;43.63;23.60;;;5.10;99.30;;;;;;5067775;28;20132;-57
2020/12/09 11:52:39;;;;;;;36.70;22.02;;;5.20;99.40;;;;;;5069449;28;20681;-51
2020/12/09 11:55:04;;;;;;;38.45;22.30;;;5.10;98.80;;;;;;5067900;28;20551;-49
2020/12/09 11:57:30;;;;;;;40.17;21.55;;;5.10;99.00;;;;;;5068210;28;20091;-51
2020/12/09 11:59:56;;;;;;;38.50;22.17;;;5.10;99.20;;;;;;5050466;28;20032;-49
2020/12/09 12:02:21;;;;;;;39.03;21.60;;;5.10;99.20;;;;;;5069118;28;20029;-51
2020/12/09 12:04:49;;;;;;;34.60;20.70;;;5.20;99.20;;;;;;5068874;28;20041;-48
2020/12/09 12:07:15;;;;;;;38.50;21.70;;;5.20;99.10;;;;;;5068968;28;20063;-47
2020/12/09 12:09:40;;;;;;;35.17;21.27;;;5.30;98.40;;;;;;5068195;28;20056;-52
2020/12/09 12:12:06;;;;;;;36.28;20.15;;;5.30;98.50;;;;;;5068463;28;20507;-47
2020/12/09 12:14:31;;;;;;;28.85;17.83;;;5.20;98.80;;;;;;5069337;28;20039;-50
2020/12/09 12:16:57;;;;;;;35.20;20.73;;;5.10;98.70;;;;;;5069250;28;20044;-49
2020/12/09 12:19:22;;;;;;;31.48;19.58;;;5.10;99.00;;;;;;5068914;28;20440;-48
2020/12/09 12:21:49;;;;;;;34.20;19.38;;;5.00;98.90;;;;;;5073256;28;20050;-53
2020/12/09 12:24:15;;;;;;;36.92;21.40;;;5.20;98.80;;;;;;5073032;28;20021;-54
2020/12/09 12:26:41;;;;;;;36.38;20.25;;;5.30;98.60;;;;;;5055035;28;20032;-49
2020/12/09 12:29:07;;;;;;;33.38;20.60;;;5.30;98.40;;;;;;5073192;28;20091;-50
2020/12/09 12:31:32;;;;;;;32.65;19.90;;;5.30;98.20;;;;;;5072976;28;20094;-49
2020/12/09 12:33:58;;;;;;;33.28;18.52;;;5.30;98.40;;;;;;5072898;28;20580;-51
2020/12/09 12:36:23;;;;;;;34.30;19.38;;;5.20;98.30;;;;;;5072350;28;20037;-47